createdAt,value
2022-12-03T00:01:01.845Z,3.20
2022-12-03T00:03:30.604Z,4.47
2022-12-03T00:05:59.018Z,4.90
2022-12-03T00:08:31.053Z,4.28
2022-12-03T00:10:59.774Z,3.55
2022-12-03T00:13:27.761Z,3.87
2022-12-03T00:15:56.013Z,4.05
2022-12-03T00:18:24.593Z,4.00
2022-12-03T00:20:52.661Z,3.25
2022-12-03T00:23:20.928Z,3.65
2022-12-03T00:25:49.442Z,4.87
2022-12-03T00:28:17.517Z,3.80
2022-12-03T00:30:45.560Z,5.80
2022-12-03T00:33:13.988Z,5.53
2022-12-03T00:35:42.182Z,4.45
2022-12-03T00:38:10.246Z,4.10
2022-12-03T00:40:38.713Z,4.45
2022-12-03T00:43:06.791Z,3.10
2022-12-03T00:45:35.039Z,3.62
2022-12-03T00:48:03.756Z,3.03
2022-12-03T00:50:32.046Z,3.47
2022-12-03T00:53:00.027Z,2.95
2022-12-03T00:55:28.479Z,3.33
2022-12-03T00:57:56.648Z,4.30
2022-12-03T01:00:25.330Z,4.57
2022-12-03T01:02:54.145Z,4.15
2022-12-03T01:05:23.061Z,3.35
2022-12-03T01:07:51.284Z,3.95
2022-12-03T01:10:19.887Z,4.20
2022-12-03T01:12:47.946Z,4.15
2022-12-03T01:15:16.047Z,3.35
2022-12-03T01:17:44.524Z,2.97
2022-12-03T01:20:12.952Z,4.50
2022-12-03T01:22:40.923Z,5.43
2022-12-03T01:25:09.909Z,4.20
2022-12-03T01:27:37.893Z,2.53
2022-12-03T01:30:07.372Z,5.78
2022-12-03T01:32:35.745Z,3.12
2022-12-03T01:35:04.588Z,3.35
2022-12-03T01:37:32.999Z,4.28
2022-12-03T01:40:01.469Z,3.45
2022-12-03T01:42:34.721Z,3.37
2022-12-03T01:45:04.154Z,4.32
2022-12-03T01:47:36.762Z,3.30
2022-12-03T01:50:26.078Z,3.92
2022-12-03T01:52:57.663Z,3.53
2022-12-03T01:55:26.862Z,3.10
2022-12-03T01:57:59.005Z,3.75
2022-12-03T02:00:29.015Z,3.62
2022-12-03T02:03:04.103Z,4.15
2022-12-03T02:08:01.533Z,3.53
2022-12-03T02:10:36.080Z,4.37
2022-12-03T02:13:10.943Z,3.80
2022-12-03T02:15:40.156Z,4.00
2022-12-03T02:18:10.165Z,3.62
2022-12-03T02:21:01.715Z,3.22
2022-12-03T02:23:41.799Z,2.72
2022-12-03T02:26:10.415Z,3.25
2022-12-03T02:28:38.882Z,2.78
2022-12-03T02:31:07.305Z,3.42
2022-12-03T02:33:36.463Z,3.12
2022-12-03T02:36:05.167Z,4.07
2022-12-03T02:38:35.739Z,3.20
2022-12-03T02:41:07.994Z,3.60
2022-12-03T02:43:37.179Z,3.97
2022-12-03T02:46:07.886Z,3.35
2022-12-03T02:48:38.553Z,3.40
2022-12-03T02:51:11.304Z,3.17
2022-12-03T02:53:46.309Z,4.37
2022-12-03T02:56:18.471Z,3.95
2022-12-03T02:58:50.143Z,4.22
2022-12-03T03:01:18.682Z,4.50
2022-12-03T03:03:48.755Z,3.05
2022-12-03T03:06:18.685Z,3.20
2022-12-03T03:08:48.766Z,4.20
2022-12-03T03:11:16.938Z,3.40
2022-12-03T03:13:45.168Z,4.43
2022-12-03T03:16:13.682Z,3.05
2022-12-03T03:18:42.208Z,4.05
2022-12-03T03:21:10.523Z,3.67
2022-12-03T03:23:39.067Z,4.68
2022-12-03T03:26:09.782Z,4.00
2022-12-03T03:28:42.794Z,3.87
2022-12-03T03:31:14.042Z,4.07
2022-12-03T03:33:45.360Z,4.05
2022-12-03T03:36:15.410Z,4.07
2022-12-03T03:38:43.771Z,4.25
2022-12-03T03:41:12.513Z,4.20
2022-12-03T03:43:42.991Z,3.37
2022-12-03T03:46:12.117Z,2.95
2022-12-03T03:48:43.072Z,3.25
2022-12-03T03:51:13.275Z,3.97
2022-12-03T03:53:44.390Z,3.45
2022-12-03T03:56:12.726Z,4.12
2022-12-03T03:58:40.946Z,5.72
2022-12-03T04:01:11.426Z,3.33
2022-12-03T04:03:40.357Z,3.28
2022-12-03T04:06:09.261Z,4.28
2022-12-03T04:08:37.436Z,2.85
2022-12-03T04:11:24.534Z,4.30
2022-12-03T04:13:52.600Z,3.25
2022-12-03T04:16:21.035Z,4.68
2022-12-03T04:18:49.316Z,2.90
2022-12-03T04:21:38.738Z,2.97
2022-12-03T04:24:08.834Z,2.83
2022-12-03T04:26:55.792Z,2.85
2022-12-03T04:29:24.156Z,2.83
2022-12-03T04:32:10.890Z,3.45
2022-12-03T04:34:57.889Z,2.75
2022-12-03T04:37:26.306Z,3.28
2022-12-03T04:39:54.733Z,3.87
2022-12-03T04:42:22.888Z,3.15
2022-12-03T04:44:51.351Z,3.35
2022-12-03T04:47:21.724Z,3.50
2022-12-03T04:49:51.275Z,2.80
2022-12-03T04:52:21.253Z,3.78
2022-12-03T04:54:49.338Z,3.50
2022-12-03T04:57:17.656Z,4.07
2022-12-03T04:59:46.489Z,4.90
2022-12-03T05:02:14.606Z,2.72
2022-12-03T05:04:42.687Z,4.18
2022-12-03T05:07:12.521Z,3.22
2022-12-03T05:09:40.936Z,3.17
2022-12-03T05:12:08.989Z,3.62
2022-12-03T05:14:37.537Z,3.20
2022-12-03T05:17:05.650Z,3.83
2022-12-03T05:19:52.370Z,4.03
2022-12-03T05:22:20.854Z,4.28
2022-12-03T05:24:48.899Z,3.65
2022-12-03T05:27:23.167Z,3.50
2022-12-03T05:29:52.924Z,3.03
2022-12-03T05:32:21.098Z,2.90
2022-12-03T05:34:49.130Z,4.22
2022-12-03T05:37:17.905Z,3.03
2022-12-03T05:39:46.104Z,3.92
2022-12-03T05:42:46.692Z,3.05
2022-12-03T05:45:15.516Z,3.33
2022-12-03T05:47:43.604Z,3.85
2022-12-03T05:50:11.889Z,3.53
2022-12-03T05:52:40.500Z,4.12
2022-12-03T05:55:09.026Z,2.85
2022-12-03T05:57:37.051Z,3.20
2022-12-03T06:00:09.606Z,2.80
2022-12-03T06:02:41.247Z,3.22
2022-12-03T06:05:11.543Z,4.22
2022-12-03T06:07:39.922Z,3.75
2022-12-03T06:10:11.062Z,3.40
2022-12-03T06:12:40.150Z,4.10
2022-12-03T06:15:09.130Z,4.40
2022-12-03T06:17:37.330Z,4.30
2022-12-03T06:20:06.640Z,4.43
2022-12-03T06:22:34.834Z,3.85
2022-12-03T06:25:06.630Z,3.60
2022-12-03T06:27:36.266Z,4.47
2022-12-03T06:30:05.704Z,5.22
2022-12-03T06:32:33.928Z,6.12
2022-12-03T06:35:02.401Z,4.03
2022-12-03T06:37:30.553Z,4.95
2022-12-03T06:39:59.024Z,4.25
2022-12-03T06:42:27.417Z,4.37
2022-12-03T06:44:55.764Z,4.75
2022-12-03T06:47:24.181Z,3.42
2022-12-03T06:49:52.662Z,4.10
2022-12-03T06:52:20.730Z,4.30
2022-12-03T06:54:48.739Z,3.03
2022-12-03T06:57:17.192Z,5.20
2022-12-03T06:59:45.329Z,3.65
2022-12-03T07:02:13.529Z,4.62
2022-12-03T07:04:46.239Z,3.85
2022-12-03T07:07:14.693Z,3.62
2022-12-03T07:09:43.648Z,4.68
2022-12-03T07:12:12.546Z,3.10
2022-12-03T07:14:40.615Z,4.35
2022-12-03T07:17:09.167Z,4.30
2022-12-03T07:19:37.411Z,4.22
2022-12-03T07:22:05.992Z,4.80
2022-12-03T07:24:34.491Z,4.03
2022-12-03T07:27:02.740Z,3.25
2022-12-03T07:29:30.906Z,4.82
2022-12-03T07:31:59.385Z,4.32
2022-12-03T07:34:29.440Z,2.92
2022-12-03T07:36:57.606Z,5.47
2022-12-03T07:39:26.021Z,3.62
2022-12-03T07:41:54.232Z,4.62
2022-12-03T07:44:22.418Z,3.83
2022-12-03T07:46:50.809Z,4.57
2022-12-03T07:49:19.016Z,4.53
2022-12-03T07:51:53.954Z,4.57
2022-12-03T07:54:26.192Z,4.28
2022-12-03T07:56:59.608Z,5.00
2022-12-03T07:59:30.023Z,3.87
2022-12-03T08:01:58.265Z,3.47
2022-12-03T08:04:26.610Z,5.00
2022-12-03T08:06:55.023Z,2.90
2022-12-03T08:09:23.313Z,3.37
2022-12-03T08:11:52.222Z,4.87
2022-12-03T08:14:21.121Z,4.32
2022-12-03T08:16:49.315Z,3.20
2022-12-03T08:19:18.443Z,3.53
2022-12-03T08:21:46.556Z,5.18
2022-12-03T08:24:20.442Z,5.28
2022-12-03T08:26:49.675Z,3.80
2022-12-03T08:29:20.180Z,4.00
2022-12-03T08:31:52.294Z,3.53
2022-12-03T08:34:26.515Z,4.62
2022-12-03T08:37:05.846Z,4.10
2022-12-03T08:39:40.004Z,4.43
2022-12-03T08:42:42.368Z,3.35
2022-12-03T08:45:22.781Z,3.25
2022-12-03T08:47:51.239Z,3.37
2022-12-03T08:50:25.546Z,4.20
2022-12-03T08:52:57.755Z,3.40
2022-12-03T08:55:52.957Z,4.72
2022-12-03T08:58:43.456Z,3.08
2022-12-03T09:01:11.648Z,4.95
2022-12-03T09:03:49.393Z,3.78
2022-12-03T09:06:18.117Z,4.10
2022-12-03T09:08:46.436Z,4.10
2022-12-03T09:11:15.739Z,4.25
2022-12-03T09:13:43.828Z,3.85
2022-12-03T09:16:12.347Z,4.40
2022-12-03T09:18:40.478Z,3.47
2022-12-03T09:21:08.982Z,4.05
2022-12-03T09:23:37.488Z,3.37
2022-12-03T09:26:05.786Z,4.75
2022-12-03T09:28:33.820Z,4.12
2022-12-03T09:31:02.295Z,2.92
2022-12-03T09:33:32.446Z,3.05
2022-12-03T09:36:00.568Z,3.75
2022-12-03T09:38:30.001Z,3.58
2022-12-03T09:40:59.521Z,2.95
2022-12-03T09:43:49.426Z,3.78
2022-12-03T09:46:22.563Z,3.37
2022-12-03T09:48:50.960Z,3.47
2022-12-03T09:51:21.165Z,2.80
2022-12-03T09:53:49.357Z,4.05
2022-12-03T09:56:22.152Z,3.05
2022-12-03T09:58:50.729Z,4.30
2022-12-03T10:01:19.197Z,4.55
2022-12-03T10:03:52.343Z,4.30
2022-12-03T10:06:22.578Z,3.92
2022-12-03T10:08:54.886Z,4.05
2022-12-03T10:11:25.241Z,4.00
2022-12-03T10:13:55.314Z,3.08
2022-12-03T10:16:23.673Z,4.25
2022-12-03T10:18:57.991Z,4.65
2022-12-03T10:21:35.437Z,2.80
2022-12-03T10:24:22.307Z,4.35
2022-12-03T10:26:52.696Z,3.62
2022-12-03T10:29:29.660Z,4.30
2022-12-03T10:32:11.962Z,3.58
2022-12-03T10:34:42.060Z,4.93
2022-12-03T10:37:21.934Z,3.67
2022-12-03T10:39:56.817Z,3.95
2022-12-03T10:42:27.906Z,5.22
2022-12-03T10:45:22.365Z,4.93
2022-12-03T10:48:06.078Z,4.20
2022-12-03T10:50:35.363Z,4.75
2022-12-03T10:53:04.860Z,4.57
2022-12-03T10:55:42.034Z,3.65
2022-12-03T10:58:23.309Z,4.45
2022-12-03T11:00:54.064Z,3.72
2022-12-03T11:03:25.784Z,3.25
2022-12-03T11:05:55.611Z,5.18
2022-12-03T11:08:26.844Z,4.45
2022-12-03T11:11:05.540Z,3.95
2022-12-03T11:13:33.918Z,2.70
2022-12-03T11:16:04.512Z,4.25
2022-12-03T11:18:38.623Z,3.97
2022-12-03T11:21:11.512Z,5.67
2022-12-03T11:23:45.559Z,4.78
2022-12-03T11:26:29.278Z,5.53
2022-12-03T11:28:59.427Z,6.32
2022-12-03T11:31:36.328Z,5.37
2022-12-03T11:34:16.847Z,4.00
2022-12-03T11:37:10.168Z,4.25
2022-12-03T11:39:50.688Z,6.05
2022-12-03T11:42:27.952Z,3.40
2022-12-03T11:45:11.207Z,3.87
2022-12-03T11:47:58.001Z,5.85
2022-12-03T11:50:40.546Z,4.82
2022-12-03T11:53:23.022Z,3.92
2022-12-03T11:56:06.259Z,3.78
2022-12-03T11:58:38.305Z,4.05
2022-12-03T12:01:08.495Z,4.32
2022-12-03T12:03:50.206Z,3.45
2022-12-03T12:06:20.669Z,4.50
2022-12-03T12:08:52.202Z,4.28
2022-12-03T12:11:25.703Z,4.37
2022-12-03T12:14:01.113Z,4.75
2022-12-03T12:16:36.291Z,4.37
2022-12-03T12:19:30.782Z,3.95
2022-12-03T12:22:25.099Z,8.48
2022-12-03T12:24:57.949Z,7.12
2022-12-03T12:27:32.109Z,12.20
2022-12-03T12:30:14.311Z,8.68
2022-12-03T12:33:15.219Z,5.35
2022-12-03T12:35:43.681Z,4.43
2022-12-03T12:38:20.189Z,5.75
2022-12-03T12:40:50.311Z,3.92
2022-12-03T12:43:31.025Z,4.62
2022-12-03T12:46:38.651Z,3.67
2022-12-03T12:48:59.585Z,4.22
2022-12-03T12:51:28.878Z,3.92
2022-12-03T12:53:57.538Z,3.30
2022-12-03T12:56:30.171Z,4.35
2022-12-03T12:59:11.482Z,4.12
2022-12-03T13:01:42.042Z,4.03
2022-12-03T13:04:12.802Z,4.35
2022-12-03T13:06:41.906Z,3.87
2022-12-03T13:09:20.072Z,3.97
2022-12-03T13:12:04.086Z,3.47
2022-12-03T13:14:36.487Z,3.65
2022-12-03T13:17:16.516Z,2.62
2022-12-03T13:19:48.625Z,2.97
2022-12-03T13:22:23.009Z,4.00
2022-12-03T13:24:54.358Z,3.42
2022-12-03T13:27:27.201Z,4.22
2022-12-03T13:30:01.383Z,4.28
2022-12-03T13:32:34.814Z,4.03
2022-12-03T13:35:13.252Z,2.60
2022-12-03T13:37:41.292Z,2.20
2022-12-03T13:40:27.923Z,3.95
2022-12-03T13:42:57.053Z,3.15
2022-12-03T13:45:32.136Z,2.53
2022-12-03T13:48:03.244Z,3.55
2022-12-03T13:50:39.438Z,3.45
2022-12-03T13:53:27.634Z,3.05
2022-12-03T13:56:28.543Z,2.87
2022-12-03T13:58:59.705Z,3.00
2022-12-03T14:01:28.675Z,3.92
2022-12-03T14:03:57.264Z,3.62
2022-12-03T14:06:25.350Z,3.30
2022-12-03T14:08:53.868Z,3.05
2022-12-03T14:11:40.778Z,3.20
2022-12-03T14:14:09.182Z,4.18
2022-12-03T14:16:37.741Z,3.80
2022-12-03T14:19:06.363Z,2.47
2022-12-03T14:21:34.524Z,2.53
2022-12-03T14:24:02.930Z,2.58
2022-12-03T14:26:30.995Z,3.75
2022-12-03T14:28:59.266Z,2.37
2022-12-03T14:31:27.650Z,3.08
2022-12-03T14:33:55.974Z,3.12
2022-12-03T14:36:24.071Z,5.18
2022-12-03T14:38:52.834Z,3.60
2022-12-03T14:41:39.640Z,3.67
2022-12-03T14:44:08.131Z,3.10
2022-12-03T14:46:36.128Z,3.33
2022-12-03T14:49:04.179Z,4.53
2022-12-03T14:51:32.718Z,3.67
2022-12-03T14:54:01.298Z,3.95
2022-12-03T14:56:29.274Z,3.87
2022-12-03T14:58:57.667Z,4.18
2022-12-03T15:01:26.197Z,3.80
2022-12-03T15:03:54.311Z,4.32
2022-12-03T15:06:23.072Z,4.93
2022-12-03T15:08:51.204Z,5.68
2022-12-03T15:11:19.418Z,5.22
2022-12-03T15:13:48.017Z,4.72
2022-12-03T15:16:16.951Z,4.12
2022-12-03T15:18:46.949Z,5.87
2022-12-03T15:21:15.606Z,5.15
2022-12-03T15:23:43.601Z,6.50
2022-12-03T15:26:11.783Z,6.35
2022-12-03T15:28:44.125Z,7.90
2022-12-03T15:31:15.251Z,6.45
2022-12-03T15:33:43.778Z,5.68
2022-12-03T15:36:12.617Z,4.25
2022-12-03T15:38:40.880Z,4.93
2022-12-03T15:41:21.851Z,5.75
2022-12-03T15:43:53.059Z,9.93
2022-12-03T15:46:21.640Z,11.38
2022-12-03T15:48:50.980Z,11.70
2022-12-03T15:51:19.201Z,8.73
2022-12-03T15:53:47.572Z,6.80
2022-12-03T15:56:16.201Z,4.53
2022-12-03T15:58:44.701Z,3.90
2022-12-03T16:01:14.725Z,4.90
2022-12-03T16:03:43.528Z,6.72
2022-12-03T16:06:12.669Z,7.43
2022-12-03T16:08:41.522Z,9.20
2022-12-03T16:11:10.587Z,10.73
2022-12-03T16:13:38.926Z,8.38
2022-12-03T16:16:07.551Z,5.68
2022-12-03T16:18:36.127Z,4.87
2022-12-03T16:21:04.728Z,5.40
2022-12-03T16:23:33.072Z,4.28
2022-12-03T16:26:01.546Z,5.43
2022-12-03T16:28:30.005Z,5.32
2022-12-03T16:30:58.782Z,4.78
2022-12-03T16:33:28.077Z,4.90
2022-12-03T16:35:56.949Z,5.15
2022-12-03T16:38:25.202Z,4.93
2022-12-03T16:40:53.785Z,3.83
2022-12-03T16:43:21.903Z,3.78
2022-12-03T16:45:56.118Z,5.10
2022-12-03T16:48:24.480Z,5.25
2022-12-03T16:50:53.319Z,5.60
2022-12-03T16:53:21.329Z,6.12
2022-12-03T16:55:49.709Z,6.07
2022-12-03T16:58:21.524Z,4.97
2022-12-03T17:00:54.149Z,6.20
2022-12-03T17:03:22.970Z,4.65
2022-12-03T17:05:51.519Z,4.95
2022-12-03T17:08:19.940Z,3.50
2022-12-03T17:10:48.447Z,4.55
2022-12-03T17:13:16.865Z,5.18
2022-12-03T17:15:45.058Z,3.85
2022-12-03T17:18:13.447Z,6.15
2022-12-03T17:20:41.884Z,7.45
2022-12-03T17:23:10.230Z,7.40
2022-12-03T17:25:38.428Z,9.65
2022-12-03T17:28:06.806Z,7.45
2022-12-03T17:30:35.213Z,9.05
2022-12-03T17:33:03.519Z,8.82
2022-12-03T17:35:31.978Z,7.62
2022-12-03T17:38:00.256Z,7.80
2022-12-03T17:40:28.583Z,6.50
2022-12-03T17:42:57.088Z,7.70
2022-12-03T17:45:27.165Z,6.93
2022-12-03T17:47:55.509Z,8.23
2022-12-03T17:50:26.094Z,8.40
2022-12-03T17:52:54.421Z,7.28
2022-12-03T17:55:31.969Z,5.53
2022-12-03T17:58:05.724Z,4.82
2022-12-03T18:00:34.500Z,5.43
2022-12-03T18:03:03.216Z,6.20
2022-12-03T18:05:31.227Z,6.35
2022-12-03T18:07:59.697Z,6.10
2022-12-03T18:10:28.035Z,6.07
2022-12-03T18:13:01.471Z,5.95
2022-12-03T18:15:32.501Z,7.40
2022-12-03T18:18:00.725Z,5.75
2022-12-03T18:20:28.881Z,6.00
2022-12-03T18:23:00.351Z,5.53
2022-12-03T18:25:29.043Z,5.65
2022-12-03T18:27:57.622Z,5.47
2022-12-03T18:30:26.033Z,5.45
2022-12-03T18:32:55.134Z,4.78
2022-12-03T18:35:23.916Z,5.22
2022-12-03T18:37:52.346Z,4.43
2022-12-03T18:40:25.312Z,4.72
2022-12-03T18:42:55.436Z,5.10
2022-12-03T18:45:23.654Z,5.45
2022-12-03T18:47:51.766Z,6.00
2022-12-03T18:50:20.566Z,4.30
2022-12-03T18:52:48.935Z,4.70
2022-12-03T18:55:19.152Z,5.45
2022-12-03T18:57:47.801Z,4.80
2022-12-03T19:00:16.282Z,5.55
2022-12-03T19:05:34.870Z,4.43
2022-12-03T19:08:04.131Z,3.75
2022-12-03T19:10:32.960Z,4.03
2022-12-03T19:13:03.660Z,4.25
2022-12-03T19:15:32.250Z,4.80
2022-12-03T19:18:01.523Z,3.87
2022-12-03T19:20:29.902Z,3.97
2022-12-03T19:22:58.403Z,5.07
2022-12-03T19:25:26.792Z,3.62
2022-12-03T19:27:57.052Z,4.05
2022-12-03T19:30:26.265Z,4.82
2022-12-03T19:32:54.880Z,4.68
2022-12-03T19:35:23.726Z,5.93
2022-12-03T19:37:53.026Z,3.92
2022-12-03T19:40:21.794Z,5.93
2022-12-03T19:42:50.069Z,4.32
2022-12-03T19:45:18.397Z,5.15
2022-12-03T19:47:46.852Z,6.35
2022-12-03T19:50:22.545Z,3.65
2022-12-03T19:52:51.586Z,4.82
2022-12-03T19:55:20.192Z,4.03
2022-12-03T19:57:48.695Z,4.15
2022-12-03T20:00:17.729Z,5.00
2022-12-03T20:02:49.565Z,4.97
2022-12-03T20:05:17.855Z,4.57
2022-12-03T20:07:46.660Z,3.65
2022-12-03T20:10:15.047Z,5.20
2022-12-03T20:12:43.650Z,5.55
2022-12-03T20:15:13.459Z,5.12
2022-12-03T20:17:41.683Z,6.28
2022-12-03T20:20:10.458Z,4.72
2022-12-03T20:22:39.155Z,4.15
2022-12-03T20:25:07.713Z,5.47
2022-12-03T20:27:36.695Z,6.68
2022-12-03T20:30:06.023Z,5.45
2022-12-03T20:32:40.553Z,4.87
2022-12-03T20:35:12.711Z,4.72
2022-12-03T20:37:41.267Z,4.87
2022-12-03T20:40:09.878Z,6.28
2022-12-03T20:42:38.717Z,7.95
2022-12-03T20:45:07.666Z,7.37
2022-12-03T20:47:35.945Z,7.40
2022-12-03T20:50:05.122Z,5.18
2022-12-03T20:52:33.425Z,6.30
2022-12-03T20:55:01.762Z,5.65
2022-12-03T20:57:30.922Z,5.35
2022-12-03T20:59:59.308Z,4.93
2022-12-03T21:02:27.645Z,5.87
2022-12-03T21:04:56.458Z,4.87
2022-12-03T21:07:25.359Z,4.10
2022-12-03T21:09:54.018Z,5.07
2022-12-03T21:12:23.005Z,4.78
2022-12-03T21:14:51.074Z,4.25
2022-12-03T21:17:19.500Z,3.10
2022-12-03T21:19:48.105Z,3.22
2022-12-03T21:22:16.228Z,4.40
2022-12-03T21:24:44.343Z,4.35
2022-12-03T21:27:17.038Z,3.42
2022-12-03T21:29:49.540Z,3.75
2022-12-03T21:32:18.336Z,3.83
2022-12-03T21:34:46.617Z,3.10
2022-12-03T21:37:15.135Z,4.43
2022-12-03T21:39:43.626Z,3.80
2022-12-03T21:42:22.126Z,4.22
2022-12-03T21:45:01.541Z,3.90
2022-12-03T21:47:36.556Z,3.78
2022-12-03T21:52:35.578Z,4.65
2022-12-03T21:55:04.316Z,3.50
2022-12-03T21:57:36.224Z,3.37
2022-12-03T22:00:07.781Z,4.53
2022-12-03T22:02:42.694Z,2.95
2022-12-03T22:05:11.877Z,3.22
2022-12-03T22:07:40.757Z,2.80
2022-12-03T22:10:11.719Z,4.20
2022-12-03T22:12:41.854Z,5.22
2022-12-03T22:15:15.061Z,3.28
2022-12-03T22:17:47.738Z,4.87
2022-12-03T22:20:16.245Z,4.15
2022-12-03T22:22:44.363Z,3.65
2022-12-03T22:25:12.829Z,3.33
2022-12-03T22:27:41.139Z,4.12
2022-12-03T22:30:09.461Z,4.18
2022-12-03T22:32:37.932Z,3.83
2022-12-03T22:35:06.223Z,4.18
2022-12-03T22:37:34.264Z,3.95
2022-12-03T22:40:03.018Z,3.78
2022-12-03T22:42:31.324Z,3.30
2022-12-03T22:44:59.378Z,4.22
2022-12-03T22:47:27.695Z,3.80
2022-12-03T22:49:56.175Z,4.03
2022-12-03T22:52:24.497Z,3.85
2022-12-03T22:54:53.111Z,3.33
2022-12-03T22:57:21.179Z,4.25
2022-12-03T22:59:49.421Z,4.93
2022-12-03T23:02:18.270Z,4.32
2022-12-03T23:04:46.741Z,4.97
2022-12-03T23:07:14.842Z,4.78
2022-12-03T23:09:43.518Z,4.12
2022-12-03T23:12:11.535Z,3.00
2022-12-03T23:14:39.546Z,3.67
2022-12-03T23:17:07.850Z,3.83
2022-12-03T23:19:35.992Z,3.60
2022-12-03T23:22:03.962Z,3.90
2022-12-03T23:24:33.156Z,4.05
2022-12-03T23:27:01.222Z,4.78
2022-12-03T23:29:29.201Z,4.62
2022-12-03T23:31:57.825Z,4.55
2022-12-03T23:34:25.998Z,3.47
2022-12-03T23:36:54.008Z,4.78
2022-12-03T23:39:22.603Z,4.70
2022-12-03T23:41:53.385Z,5.68
2022-12-03T23:44:21.419Z,6.45
2022-12-03T23:46:50.236Z,4.97
2022-12-03T23:49:18.506Z,6.10
2022-12-03T23:51:46.570Z,5.07
2022-12-03T23:54:15.235Z,5.20
2022-12-03T23:56:43.319Z,5.18
2022-12-03T23:59:11.809Z,5.28
